Big Trout Lake Airport
CYTL : now visible

Airfield :











YOU CAN JOIN US ON...

 
LOGIN :

Register | Disclaimer

   EN    FR    IT 

 









Legend :    VFR   Marginal VFR   IFR   Intensive IFR   Very Intensive IFR
Visi :
Ceiling :
>= 8 km
>= 3000ft
5 to 8 km
1000 to 3000 ft
1500m to 5 km
500 to 1000 ft
800 to 1500m
200 to 500 ft
< 800m
< 200 ft
Symbols :   Thunderstorms  Fog  Heavy snow  Heavy precipitations  Wind > 20 kt






- Airport Elevation : 729 ft
- IATA code : YTL


CYTL - Big Trout Lake

CURRENT METAR :
  • 260500Z AUTO 18010KT 9SM OVC009 02/01 A3027 RMK SLP267

EXPIRED METARs :
  • 260400Z AUTO 19010G15KT 9SM OVC011 02/01 A3028 RMK SLP269
  • 260300Z AUTO 19011G16KT 9SM OVC013 02/01 A3028 RMK SLP269

TAF AMD TAF CYTL
Valid from the 26 at 05:00 until the 26 at 14:00 UTC


260509Z 2605/2614 18010KT P6SM OVC008
TEMPO 2605/2614 OVC010
PROB30 2605/2614 OVC007 RMK FCST BASED ON AUTO OBS. NXT FCST BY 260800Z
CZWG FIR / North America



MET'MAP, your aeronautical weather chart ! - Copyright ORBIFLY December 2007 - Disclaimer

ORBIFLY MET'MAP TEAM :

Programming & Development : Alexandra Zaïnal
Concept & original design : Baudouin d'Aumeries
Assistance for programming : Marc-Olivier Méhu
Technical & hardware support : Manuel Goepfert

Contact : metmap@orbifly.com




SOURCES & CREDITS :

   NOAA       Earth
Advisory